sensor_id;sensor_type;location;lat;lon;timestamp;P1;durP1;ratioP1;P2;durP2;ratioP2
56770;SDS011;42641;59.794;17.616;2023-04-24T00:00:42;0.50;;;0.50;;
56770;SDS011;42641;59.794;17.616;2023-04-24T00:03:10;0.70;;;0.70;;
56770;SDS011;42641;59.794;17.616;2023-04-24T00:05:38;0.77;;;0.77;;
56770;SDS011;42641;59.794;17.616;2023-04-24T00:08:06;0.70;;;0.70;;
56770;SDS011;42641;59.794;17.616;2023-04-24T00:10:32;0.80;;;0.80;;
56770;SDS011;42641;59.794;17.616;2023-04-24T00:12:59;0.70;;;0.70;;
56770;SDS011;42641;59.794;17.616;2023-04-24T00:15:25;0.80;;;0.80;;
56770;SDS011;42641;59.794;17.616;2023-04-24T00:17:52;0.70;;;0.70;;
56770;SDS011;42641;59.794;17.616;2023-04-24T00:20:19;1.10;;;0.80;;
56770;SDS011;42641;59.794;17.616;2023-04-24T00:22:45;0.73;;;0.73;;
56770;SDS011;42641;59.794;17.616;2023-04-24T00:25:12;0.80;;;0.80;;
56770;SDS011;42641;59.794;17.616;2023-04-24T00:27:38;0.90;;;0.90;;
56770;SDS011;42641;59.794;17.616;2023-04-24T00:30:05;0.90;;;0.90;;
56770;SDS011;42641;59.794;17.616;2023-04-24T00:32:32;1.03;;;1.00;;
56770;SDS011;42641;59.794;17.616;2023-04-24T00:34:58;1.20;;;0.80;;
56770;SDS011;42641;59.794;17.616;2023-04-24T00:37:24;0.90;;;0.80;;
56770;SDS011;42641;59.794;17.616;2023-04-24T00:39:51;1.20;;;1.10;;
56770;SDS011;42641;59.794;17.616;2023-04-24T00:42:17;0.90;;;0.90;;
56770;SDS011;42641;59.794;17.616;2023-04-24T00:44:44;1.30;;;1.20;;
56770;SDS011;42641;59.794;17.616;2023-04-24T00:47:11;1.33;;;1.20;;
56770;SDS011;42641;59.794;17.616;2023-04-24T00:49:38;1.07;;;1.03;;
56770;SDS011;42641;59.794;17.616;2023-04-24T00:52:05;1.93;;;1.43;;
56770;SDS011;42641;59.794;17.616;2023-04-24T00:54:35;2.10;;;1.90;;
56770;SDS011;42641;59.794;17.616;2023-04-24T00:57:04;3.00;;;2.10;;
56770;SDS011;42641;59.794;17.616;2023-04-24T00:59:31;2.10;;;1.90;;
56770;SDS011;42641;59.794;17.616;2023-04-24T01:01:58;3.73;;;2.17;;
56770;SDS011;42641;59.794;17.616;2023-04-24T01:04:25;2.83;;;2.43;;
56770;SDS011;42641;59.794;17.616;2023-04-24T01:06:52;3.07;;;2.40;;
56770;SDS011;42641;59.794;17.616;2023-04-24T01:09:20;2.67;;;2.43;;
56770;SDS011;42641;59.794;17.616;2023-04-24T01:11:49;3.53;;;2.70;;
56770;SDS011;42641;59.794;17.616;2023-04-24T01:14:16;3.07;;;2.40;;
56770;SDS011;42641;59.794;17.616;2023-04-24T01:16:43;3.70;;;2.60;;
56770;SDS011;42641;59.794;17.616;2023-04-24T01:19:10;2.90;;;2.60;;
56770;SDS011;42641;59.794;17.616;2023-04-24T01:21:38;2.40;;;2.20;;
56770;SDS011;42641;59.794;17.616;2023-04-24T01:24:05;3.07;;;2.70;;
56770;SDS011;42641;59.794;17.616;2023-04-24T01:26:32;3.63;;;2.53;;
56770;SDS011;42641;59.794;17.616;2023-04-24T01:29:00;3.73;;;2.80;;
56770;SDS011;42641;59.794;17.616;2023-04-24T01:31:26;3.20;;;2.50;;
56770;SDS011;42641;59.794;17.616;2023-04-24T01:33:54;4.13;;;2.57;;
56770;SDS011;42641;59.794;17.616;2023-04-24T01:36:22;3.67;;;2.77;;
56770;SDS011;42641;59.794;17.616;2023-04-24T01:38:49;3.33;;;2.50;;
56770;SDS011;42641;59.794;17.616;2023-04-24T01:41:16;3.17;;;2.63;;
56770;SDS011;42641;59.794;17.616;2023-04-24T01:43:44;2.83;;;2.50;;
56770;SDS011;42641;59.794;17.616;2023-04-24T01:46:10;3.70;;;2.63;;
56770;SDS011;42641;59.794;17.616;2023-04-24T01:48:37;4.10;;;2.53;;
56770;SDS011;42641;59.794;17.616;2023-04-24T01:51:03;3.30;;;2.70;;
56770;SDS011;42641;59.794;17.616;2023-04-24T01:53:30;2.93;;;2.23;;
56770;SDS011;42641;59.794;17.616;2023-04-24T01:55:57;3.70;;;2.53;;
56770;SDS011;42641;59.794;17.616;2023-04-24T01:58:24;4.53;;;2.70;;
56770;SDS011;42641;59.794;17.616;2023-04-24T02:00:52;3.40;;;2.40;;
56770;SDS011;42641;59.794;17.616;2023-04-24T02:03:20;3.07;;;2.43;;
56770;SDS011;42641;59.794;17.616;2023-04-24T02:05:48;3.73;;;2.70;;
56770;SDS011;42641;59.794;17.616;2023-04-24T02:08:14;5.07;;;2.60;;
56770;SDS011;42641;59.794;17.616;2023-04-24T02:10:41;5.67;;;2.53;;
56770;SDS011;42641;59.794;17.616;2023-04-24T02:13:07;5.20;;;2.70;;
56770;SDS011;42641;59.794;17.616;2023-04-24T02:15:33;5.97;;;2.70;;
56770;SDS011;42641;59.794;17.616;2023-04-24T02:18:00;2.93;;;2.07;;
56770;SDS011;42641;59.794;17.616;2023-04-24T02:20:26;3.83;;;2.77;;
56770;SDS011;42641;59.794;17.616;2023-04-24T02:22:53;4.53;;;2.90;;
56770;SDS011;42641;59.794;17.616;2023-04-24T02:25:19;3.07;;;2.23;;
56770;SDS011;42641;59.794;17.616;2023-04-24T02:27:46;3.20;;;2.10;;
56770;SDS011;42641;59.794;17.616;2023-04-24T02:30:12;4.87;;;2.53;;
56770;SDS011;42641;59.794;17.616;2023-04-24T02:32:39;2.50;;;2.20;;
56770;SDS011;42641;59.794;17.616;2023-04-24T02:35:05;3.83;;;2.10;;
56770;SDS011;42641;59.794;17.616;2023-04-24T02:37:32;2.57;;;2.20;;
56770;SDS011;42641;59.794;17.616;2023-04-24T02:39:59;2.63;;;1.90;;
56770;SDS011;42641;59.794;17.616;2023-04-24T02:42:25;2.67;;;2.10;;
56770;SDS011;42641;59.794;17.616;2023-04-24T02:44:51;2.10;;;1.60;;
56770;SDS011;42641;59.794;17.616;2023-04-24T02:47:18;1.50;;;1.40;;
56770;SDS011;42641;59.794;17.616;2023-04-24T02:49:45;2.37;;;1.80;;
56770;SDS011;42641;59.794;17.616;2023-04-24T02:52:11;2.10;;;1.90;;
56770;SDS011;42641;59.794;17.616;2023-04-24T02:54:38;1.80;;;1.70;;
56770;SDS011;42641;59.794;17.616;2023-04-24T02:57:05;1.80;;;1.70;;
56770;SDS011;42641;59.794;17.616;2023-04-24T02:59:32;2.13;;;1.93;;
56770;SDS011;42641;59.794;17.616;2023-04-24T03:01:59;2.43;;;1.60;;
56770;SDS011;42641;59.794;17.616;2023-04-24T03:04:25;1.67;;;1.57;;
56770;SDS011;42641;59.794;17.616;2023-04-24T03:06:52;1.70;;;1.60;;
56770;SDS011;42641;59.794;17.616;2023-04-24T03:09:20;1.70;;;1.60;;
56770;SDS011;42641;59.794;17.616;2023-04-24T03:11:47;1.87;;;1.77;;
56770;SDS011;42641;59.794;17.616;2023-04-24T03:14:15;1.93;;;1.80;;
56770;SDS011;42641;59.794;17.616;2023-04-24T03:16:42;2.10;;;1.90;;
56770;SDS011;42641;59.794;17.616;2023-04-24T03:19:08;1.70;;;1.60;;
56770;SDS011;42641;59.794;17.616;2023-04-24T03:21:42;1.63;;;1.53;;
56770;SDS011;42641;59.794;17.616;2023-04-24T03:24:09;1.77;;;1.67;;
56770;SDS011;42641;59.794;17.616;2023-04-24T03:26:37;2.27;;;1.77;;
56770;SDS011;42641;59.794;17.616;2023-04-24T03:29:29;1.90;;;1.80;;
56770;SDS011;42641;59.794;17.616;2023-04-24T03:31:56;2.53;;;2.10;;
56770;SDS011;42641;59.794;17.616;2023-04-24T03:34:23;2.93;;;2.23;;
56770;SDS011;42641;59.794;17.616;2023-04-24T03:36:50;2.27;;;2.07;;
56770;SDS011;42641;59.794;17.616;2023-04-24T03:39:18;3.07;;;2.40;;
56770;SDS011;42641;59.794;17.616;2023-04-24T03:41:50;2.57;;;2.37;;
56770;SDS011;42641;59.794;17.616;2023-04-24T03:44:22;2.30;;;2.10;;
56770;SDS011;42641;59.794;17.616;2023-04-24T03:46:49;2.27;;;2.07;;
56770;SDS011;42641;59.794;17.616;2023-04-24T03:49:18;2.50;;;2.30;;
56770;SDS011;42641;59.794;17.616;2023-04-24T03:51:47;2.67;;;2.47;;
56770;SDS011;42641;59.794;17.616;2023-04-24T03:54:18;2.57;;;2.37;;
56770;SDS011;42641;59.794;17.616;2023-04-24T03:56:45;2.60;;;2.40;;
56770;SDS011;42641;59.794;17.616;2023-04-24T03:59:12;2.80;;;2.30;;
56770;SDS011;42641;59.794;17.616;2023-04-24T04:01:41;2.63;;;2.40;;
56770;SDS011;42641;59.794;17.616;2023-04-24T04:04:13;2.50;;;2.30;;
56770;SDS011;42641;59.794;17.616;2023-04-24T04:06:40;2.70;;;2.50;;
56770;SDS011;42641;59.794;17.616;2023-04-24T04:09:06;2.97;;;2.40;;
56770;SDS011;42641;59.794;17.616;2023-04-24T04:11:35;2.63;;;2.43;;
56770;SDS011;42641;59.794;17.616;2023-04-24T04:14:02;2.83;;;2.50;;
56770;SDS011;42641;59.794;17.616;2023-04-24T04:16:29;2.83;;;2.53;;
56770;SDS011;42641;59.794;17.616;2023-04-24T04:19:01;3.27;;;2.30;;
56770;SDS011;42641;59.794;17.616;2023-04-24T04:21:29;2.50;;;2.30;;
56770;SDS011;42641;59.794;17.616;2023-04-24T04:24:07;2.83;;;2.50;;
56770;SDS011;42641;59.794;17.616;2023-04-24T04:26:39;2.70;;;2.50;;
56770;SDS011;42641;59.794;17.616;2023-04-24T04:29:08;2.83;;;2.13;;
56770;SDS011;42641;59.794;17.616;2023-04-24T04:31:39;3.07;;;2.43;;
56770;SDS011;42641;59.794;17.616;2023-04-24T04:34:10;2.90;;;2.50;;
56770;SDS011;42641;59.794;17.616;2023-04-24T04:36:39;4.03;;;3.03;;
56770;SDS011;42641;59.794;17.616;2023-04-24T04:39:29;2.93;;;2.60;;
56770;SDS011;42641;59.794;17.616;2023-04-24T04:42:01;3.17;;;2.87;;
56770;SDS011;42641;59.794;17.616;2023-04-24T04:44:35;3.20;;;2.73;;
56770;SDS011;42641;59.794;17.616;2023-04-24T04:47:03;3.03;;;2.67;;
56770;SDS011;42641;59.794;17.616;2023-04-24T04:49:33;3.60;;;3.30;;
56770;SDS011;42641;59.794;17.616;2023-04-24T04:52:00;4.83;;;3.67;;
56770;SDS011;42641;59.794;17.616;2023-04-24T04:54:28;3.63;;;3.33;;
56770;SDS011;42641;59.794;17.616;2023-04-24T04:56:56;4.47;;;3.43;;
56770;SDS011;42641;59.794;17.616;2023-04-24T04:59:23;4.00;;;3.60;;
56770;SDS011;42641;59.794;17.616;2023-04-24T05:01:55;3.90;;;3.50;;
56770;SDS011;42641;59.794;17.616;2023-04-24T05:04:23;5.30;;;4.40;;
56770;SDS011;42641;59.794;17.616;2023-04-24T05:06:49;5.47;;;4.23;;
56770;SDS011;42641;59.794;17.616;2023-04-24T05:09:18;4.40;;;3.90;;
56770;SDS011;42641;59.794;17.616;2023-04-24T05:11:50;4.13;;;3.73;;
56770;SDS011;42641;59.794;17.616;2023-04-24T05:14:16;5.07;;;4.00;;
56770;SDS011;42641;59.794;17.616;2023-04-24T05:16:45;4.87;;;4.30;;
56770;SDS011;42641;59.794;17.616;2023-04-24T05:19:13;4.43;;;4.03;;
56770;SDS011;42641;59.794;17.616;2023-04-24T05:21:41;4.33;;;3.60;;
56770;SDS011;42641;59.794;17.616;2023-04-24T05:24:08;4.70;;;4.07;;
56770;SDS011;42641;59.794;17.616;2023-04-24T05:26:55;7.60;;;3.90;;
56770;SDS011;42641;59.794;17.616;2023-04-24T05:29:28;5.80;;;3.83;;
56770;SDS011;42641;59.794;17.616;2023-04-24T05:31:57;4.27;;;3.87;;
56770;SDS011;42641;59.794;17.616;2023-04-24T05:34:24;4.97;;;4.47;;
56770;SDS011;42641;59.794;17.616;2023-04-24T05:36:54;5.03;;;4.17;;
56770;SDS011;42641;59.794;17.616;2023-04-24T05:39:21;5.10;;;3.97;;
56770;SDS011;42641;59.794;17.616;2023-04-24T05:41:47;3.93;;;3.53;;
56770;SDS011;42641;59.794;17.616;2023-04-24T05:44:14;5.40;;;4.13;;
56770;SDS011;42641;59.794;17.616;2023-04-24T05:46:41;5.63;;;4.10;;
56770;SDS011;42641;59.794;17.616;2023-04-24T05:49:09;5.83;;;4.20;;
56770;SDS011;42641;59.794;17.616;2023-04-24T05:51:36;6.00;;;3.90;;
56770;SDS011;42641;59.794;17.616;2023-04-24T05:54:02;6.10;;;3.57;;
56770;SDS011;42641;59.794;17.616;2023-04-24T05:56:30;5.37;;;4.23;;
56770;SDS011;42641;59.794;17.616;2023-04-24T05:58:58;4.10;;;3.70;;
56770;SDS011;42641;59.794;17.616;2023-04-24T06:01:25;4.07;;;3.67;;
56770;SDS011;42641;59.794;17.616;2023-04-24T06:04:00;4.93;;;4.30;;
56770;SDS011;42641;59.794;17.616;2023-04-24T06:06:28;4.70;;;4.20;;
56770;SDS011;42641;59.794;17.616;2023-04-24T06:08:55;4.97;;;4.17;;
56770;SDS011;42641;59.794;17.616;2023-04-24T06:11:24;5.20;;;4.40;;
56770;SDS011;42641;59.794;17.616;2023-04-24T06:13:50;5.47;;;4.97;;
56770;SDS011;42641;59.794;17.616;2023-04-24T06:16:36;7.93;;;4.97;;
56770;SDS011;42641;59.794;17.616;2023-04-24T06:19:12;7.43;;;5.50;;
56770;SDS011;42641;59.794;17.616;2023-04-24T06:21:39;5.37;;;4.73;;
56770;SDS011;42641;59.794;17.616;2023-04-24T06:24:05;6.10;;;5.50;;
56770;SDS011;42641;59.794;17.616;2023-04-24T06:26:32;5.93;;;4.57;;
56770;SDS011;42641;59.794;17.616;2023-04-24T06:28:59;7.53;;;4.80;;
56770;SDS011;42641;59.794;17.616;2023-04-24T06:31:26;5.07;;;4.23;;
56770;SDS011;42641;59.794;17.616;2023-04-24T06:33:53;4.40;;;3.47;;
56770;SDS011;42641;59.794;17.616;2023-04-24T06:36:20;3.37;;;3.07;;
56770;SDS011;42641;59.794;17.616;2023-04-24T06:38:46;5.20;;;2.87;;
56770;SDS011;42641;59.794;17.616;2023-04-24T06:41:13;3.67;;;3.17;;
56770;SDS011;42641;59.794;17.616;2023-04-24T06:43:39;3.20;;;2.90;;
56770;SDS011;42641;59.794;17.616;2023-04-24T06:46:06;2.80;;;2.60;;
56770;SDS011;42641;59.794;17.616;2023-04-24T06:48:32;4.07;;;2.97;;
56770;SDS011;42641;59.794;17.616;2023-04-24T06:50:59;3.90;;;2.80;;
56770;SDS011;42641;59.794;17.616;2023-04-24T06:53:25;4.00;;;3.00;;
56770;SDS011;42641;59.794;17.616;2023-04-24T06:55:53;3.13;;;2.83;;
56770;SDS011;42641;59.794;17.616;2023-04-24T06:58:19;3.33;;;2.90;;
56770;SDS011;42641;59.794;17.616;2023-04-24T07:00:45;3.00;;;2.70;;
56770;SDS011;42641;59.794;17.616;2023-04-24T07:03:12;4.03;;;2.97;;
56770;SDS011;42641;59.794;17.616;2023-04-24T07:05:38;3.67;;;2.47;;
56770;SDS011;42641;59.794;17.616;2023-04-24T07:08:06;2.83;;;2.40;;
56770;SDS011;42641;59.794;17.616;2023-04-24T07:10:32;2.57;;;2.00;;
56770;SDS011;42641;59.794;17.616;2023-04-24T07:13:01;2.40;;;1.90;;
56770;SDS011;42641;59.794;17.616;2023-04-24T07:15:27;3.43;;;2.60;;
56770;SDS011;42641;59.794;17.616;2023-04-24T07:17:55;3.77;;;2.80;;
56770;SDS011;42641;59.794;17.616;2023-04-24T07:20:21;2.67;;;2.40;;
56770;SDS011;42641;59.794;17.616;2023-04-24T07:22:48;2.53;;;2.33;;
56770;SDS011;42641;59.794;17.616;2023-04-24T07:25:15;2.17;;;1.97;;
56770;SDS011;42641;59.794;17.616;2023-04-24T07:27:41;2.40;;;2.20;;
56770;SDS011;42641;59.794;17.616;2023-04-24T07:30:08;2.53;;;2.00;;
56770;SDS011;42641;59.794;17.616;2023-04-24T07:32:35;2.70;;;2.30;;
56770;SDS011;42641;59.794;17.616;2023-04-24T07:35:01;2.63;;;2.27;;
56770;SDS011;42641;59.794;17.616;2023-04-24T07:37:28;3.90;;;2.40;;
56770;SDS011;42641;59.794;17.616;2023-04-24T07:39:55;2.30;;;2.10;;
56770;SDS011;42641;59.794;17.616;2023-04-24T07:42:23;3.77;;;2.27;;
56770;SDS011;42641;59.794;17.616;2023-04-24T07:44:50;3.43;;;2.10;;
56770;SDS011;42641;59.794;17.616;2023-04-24T07:47:17;3.10;;;2.63;;
56770;SDS011;42641;59.794;17.616;2023-04-24T07:49:43;2.80;;;2.40;;
56770;SDS011;42641;59.794;17.616;2023-04-24T07:52:09;2.80;;;2.20;;
56770;SDS011;42641;59.794;17.616;2023-04-24T07:54:36;3.00;;;2.30;;
56770;SDS011;42641;59.794;17.616;2023-04-24T07:57:03;2.73;;;2.33;;
56770;SDS011;42641;59.794;17.616;2023-04-24T07:59:30;2.50;;;2.20;;
56770;SDS011;42641;59.794;17.616;2023-04-24T08:01:56;2.60;;;2.10;;
56770;SDS011;42641;59.794;17.616;2023-04-24T08:04:22;6.63;;;2.30;;
56770;SDS011;42641;59.794;17.616;2023-04-24T08:06:49;3.17;;;2.13;;
56770;SDS011;42641;59.794;17.616;2023-04-24T08:09:15;3.37;;;2.20;;
56770;SDS011;42641;59.794;17.616;2023-04-24T08:11:42;3.10;;;2.07;;
56770;SDS011;42641;59.794;17.616;2023-04-24T08:14:09;2.30;;;2.03;;
56770;SDS011;42641;59.794;17.616;2023-04-24T08:16:38;2.60;;;2.00;;
56770;SDS011;42641;59.794;17.616;2023-04-24T08:19:04;3.93;;;2.57;;
56770;SDS011;42641;59.794;17.616;2023-04-24T08:21:31;2.33;;;2.10;;
56770;SDS011;42641;59.794;17.616;2023-04-24T08:23:57;3.03;;;2.13;;
56770;SDS011;42641;59.794;17.616;2023-04-24T08:26:24;2.77;;;2.17;;
56770;SDS011;42641;59.794;17.616;2023-04-24T08:28:51;2.90;;;2.07;;
56770;SDS011;42641;59.794;17.616;2023-04-24T08:31:17;2.67;;;1.90;;
56770;SDS011;42641;59.794;17.616;2023-04-24T08:33:44;2.23;;;2.03;;
56770;SDS011;42641;59.794;17.616;2023-04-24T08:36:11;2.90;;;1.80;;
56770;SDS011;42641;59.794;17.616;2023-04-24T08:38:37;2.47;;;2.20;;
56770;SDS011;42641;59.794;17.616;2023-04-24T08:41:04;2.20;;;2.00;;
56770;SDS011;42641;59.794;17.616;2023-04-24T08:43:32;3.07;;;2.10;;
56770;SDS011;42641;59.794;17.616;2023-04-24T08:46:03;3.20;;;2.10;;
56770;SDS011;42641;59.794;17.616;2023-04-24T08:48:30;2.10;;;1.90;;
56770;SDS011;42641;59.794;17.616;2023-04-24T08:50:58;2.10;;;1.90;;
56770;SDS011;42641;59.794;17.616;2023-04-24T08:53:25;2.30;;;1.80;;
56770;SDS011;42641;59.794;17.616;2023-04-24T08:55:52;1.97;;;1.70;;
56770;SDS011;42641;59.794;17.616;2023-04-24T08:58:21;2.00;;;1.70;;
56770;SDS011;42641;59.794;17.616;2023-04-24T09:00:51;2.13;;;1.80;;
56770;SDS011;42641;59.794;17.616;2023-04-24T09:03:20;2.33;;;1.77;;
56770;SDS011;42641;59.794;17.616;2023-04-24T09:05:47;1.70;;;1.60;;
56770;SDS011;42641;59.794;17.616;2023-04-24T09:08:16;2.63;;;1.80;;
56770;SDS011;42641;59.794;17.616;2023-04-24T09:10:44;2.43;;;1.83;;
56770;SDS011;42641;59.794;17.616;2023-04-24T09:13:10;3.80;;;1.90;;
56770;SDS011;42641;59.794;17.616;2023-04-24T09:15:37;1.83;;;1.73;;
56770;SDS011;42641;59.794;17.616;2023-04-24T09:18:04;2.03;;;1.73;;
56770;SDS011;42641;59.794;17.616;2023-04-24T09:20:31;2.40;;;1.70;;
56770;SDS011;42641;59.794;17.616;2023-04-24T09:22:58;2.60;;;1.63;;
56770;SDS011;42641;59.794;17.616;2023-04-24T09:25:32;2.03;;;1.50;;
56770;SDS011;42641;59.794;17.616;2023-04-24T09:28:03;2.23;;;1.80;;
56770;SDS011;42641;59.794;17.616;2023-04-24T09:30:31;1.73;;;1.63;;
56770;SDS011;42641;59.794;17.616;2023-04-24T09:33:10;3.23;;;1.87;;
56770;SDS011;42641;59.794;17.616;2023-04-24T09:35:41;2.83;;;1.97;;
56770;SDS011;42641;59.794;17.616;2023-04-24T09:38:17;2.70;;;1.70;;
56770;SDS011;42641;59.794;17.616;2023-04-24T09:40:44;2.10;;;1.90;;
56770;SDS011;42641;59.794;17.616;2023-04-24T09:43:11;2.10;;;1.90;;
56770;SDS011;42641;59.794;17.616;2023-04-24T09:45:38;2.07;;;1.87;;
56770;SDS011;42641;59.794;17.616;2023-04-24T09:48:05;2.27;;;1.90;;
56770;SDS011;42641;59.794;17.616;2023-04-24T09:50:35;3.30;;;1.97;;
56770;SDS011;42641;59.794;17.616;2023-04-24T09:53:03;4.03;;;2.10;;
56770;SDS011;42641;59.794;17.616;2023-04-24T09:55:31;2.63;;;2.10;;
56770;SDS011;42641;59.794;17.616;2023-04-24T09:57:58;3.13;;;2.10;;
56770;SDS011;42641;59.794;17.616;2023-04-24T10:00:29;2.63;;;2.40;;
56770;SDS011;42641;59.794;17.616;2023-04-24T10:05:31;4.07;;;2.00;;
56770;SDS011;42641;59.794;17.616;2023-04-24T10:08:06;3.70;;;2.00;;
56770;SDS011;42641;59.794;17.616;2023-04-24T10:10:45;2.00;;;1.80;;
56770;SDS011;42641;59.794;17.616;2023-04-24T10:13:12;2.30;;;1.97;;
56770;SDS011;42641;59.794;17.616;2023-04-24T10:15:41;4.10;;;2.00;;
56770;SDS011;42641;59.794;17.616;2023-04-24T10:18:08;2.93;;;2.40;;
56770;SDS011;42641;59.794;17.616;2023-04-24T10:20:36;3.17;;;2.30;;
56770;SDS011;42641;59.794;17.616;2023-04-24T10:23:04;2.73;;;2.20;;
56770;SDS011;42641;59.794;17.616;2023-04-24T10:25:32;2.30;;;2.10;;
56770;SDS011;42641;59.794;17.616;2023-04-24T10:28:00;3.40;;;2.20;;
56770;SDS011;42641;59.794;17.616;2023-04-24T10:30:28;2.60;;;2.17;;
56770;SDS011;42641;59.794;17.616;2023-04-24T10:32:56;2.93;;;2.30;;
56770;SDS011;42641;59.794;17.616;2023-04-24T10:35:22;3.87;;;2.20;;
56770;SDS011;42641;59.794;17.616;2023-04-24T10:37:54;3.50;;;2.40;;
56770;SDS011;42641;59.794;17.616;2023-04-24T10:40:27;2.27;;;2.07;;
56770;SDS011;42641;59.794;17.616;2023-04-24T10:42:59;2.70;;;2.10;;
56770;SDS011;42641;59.794;17.616;2023-04-24T10:45:28;3.80;;;2.47;;
56770;SDS011;42641;59.794;17.616;2023-04-24T10:47:59;2.80;;;2.43;;
56770;SDS011;42641;59.794;17.616;2023-04-24T10:50:29;3.57;;;2.00;;
56770;SDS011;42641;59.794;17.616;2023-04-24T10:53:11;3.30;;;2.57;;
56770;SDS011;42641;59.794;17.616;2023-04-24T10:58:35;2.70;;;1.90;;
56770;SDS011;42641;59.794;17.616;2023-04-24T11:01:33;2.60;;;2.10;;
56770;SDS011;42641;59.794;17.616;2023-04-24T11:04:02;2.30;;;2.10;;
56770;SDS011;42641;59.794;17.616;2023-04-24T11:06:34;2.70;;;2.20;;
56770;SDS011;42641;59.794;17.616;2023-04-24T11:09:08;2.63;;;2.00;;
56770;SDS011;42641;59.794;17.616;2023-04-24T11:11:38;2.70;;;2.47;;
56770;SDS011;42641;59.794;17.616;2023-04-24T11:14:13;1.97;;;1.87;;
56770;SDS011;42641;59.794;17.616;2023-04-24T11:19:08;3.47;;;2.10;;
56770;SDS011;42641;59.794;17.616;2023-04-24T11:21:43;4.03;;;2.40;;
56770;SDS011;42641;59.794;17.616;2023-04-24T11:27:07;2.40;;;2.20;;
56770;SDS011;42641;59.794;17.616;2023-04-24T11:35:00;2.70;;;2.43;;
56770;SDS011;42641;59.794;17.616;2023-04-24T11:37:39;4.53;;;2.73;;
56770;SDS011;42641;59.794;17.616;2023-04-24T11:40:09;2.60;;;2.40;;
56770;SDS011;42641;59.794;17.616;2023-04-24T11:42:37;2.50;;;2.30;;
56770;SDS011;42641;59.794;17.616;2023-04-24T11:47:41;2.47;;;2.07;;
56770;SDS011;42641;59.794;17.616;2023-04-24T11:50:09;5.40;;;2.40;;
56770;SDS011;42641;59.794;17.616;2023-04-24T11:52:40;2.53;;;2.33;;
56770;SDS011;42641;59.794;17.616;2023-04-24T11:55:22;2.03;;;1.87;;
56770;SDS011;42641;59.794;17.616;2023-04-24T11:57:55;2.90;;;1.93;;
56770;SDS011;42641;59.794;17.616;2023-04-24T12:00:27;2.63;;;2.20;;
56770;SDS011;42641;59.794;17.616;2023-04-24T12:03:06;2.30;;;2.10;;
56770;SDS011;42641;59.794;17.616;2023-04-24T12:05:37;4.33;;;2.10;;
56770;SDS011;42641;59.794;17.616;2023-04-24T12:08:05;3.47;;;2.17;;
56770;SDS011;42641;59.794;17.616;2023-04-24T12:10:32;2.87;;;2.20;;
56770;SDS011;42641;59.794;17.616;2023-04-24T12:12:59;2.53;;;2.10;;
56770;SDS011;42641;59.794;17.616;2023-04-24T12:15:26;4.77;;;2.47;;
56770;SDS011;42641;59.794;17.616;2023-04-24T12:17:53;2.40;;;2.20;;
56770;SDS011;42641;59.794;17.616;2023-04-24T12:20:28;2.87;;;2.40;;
56770;SDS011;42641;59.794;17.616;2023-04-24T12:22:56;3.10;;;2.43;;
56770;SDS011;42641;59.794;17.616;2023-04-24T12:25:25;3.27;;;2.30;;
56770;SDS011;42641;59.794;17.616;2023-04-24T12:27:57;4.73;;;2.50;;
56770;SDS011;42641;59.794;17.616;2023-04-24T12:30:41;5.10;;;2.50;;
56770;SDS011;42641;59.794;17.616;2023-04-24T12:33:17;3.30;;;2.47;;
56770;SDS011;42641;59.794;17.616;2023-04-24T12:35:45;3.33;;;2.13;;
56770;SDS011;42641;59.794;17.616;2023-04-24T12:38:13;2.97;;;2.30;;
56770;SDS011;42641;59.794;17.616;2023-04-24T12:40:42;3.30;;;2.67;;
56770;SDS011;42641;59.794;17.616;2023-04-24T12:43:13;2.73;;;2.50;;
56770;SDS011;42641;59.794;17.616;2023-04-24T12:45:41;2.77;;;2.40;;
56770;SDS011;42641;59.794;17.616;2023-04-24T12:48:07;3.67;;;2.33;;
56770;SDS011;42641;59.794;17.616;2023-04-24T12:50:34;2.50;;;2.23;;
56770;SDS011;42641;59.794;17.616;2023-04-24T12:53:00;4.03;;;3.03;;
56770;SDS011;42641;59.794;17.616;2023-04-24T12:55:27;2.37;;;2.17;;
56770;SDS011;42641;59.794;17.616;2023-04-24T12:57:53;2.40;;;2.20;;
56770;SDS011;42641;59.794;17.616;2023-04-24T13:00:21;4.53;;;2.50;;
56770;SDS011;42641;59.794;17.616;2023-04-24T13:02:47;3.30;;;2.70;;
56770;SDS011;42641;59.794;17.616;2023-04-24T13:05:14;2.77;;;2.43;;
56770;SDS011;42641;59.794;17.616;2023-04-24T13:07:41;4.70;;;2.60;;
56770;SDS011;42641;59.794;17.616;2023-04-24T13:10:08;2.87;;;2.60;;
56770;SDS011;42641;59.794;17.616;2023-04-24T13:12:35;3.73;;;2.70;;
56770;SDS011;42641;59.794;17.616;2023-04-24T13:15:01;2.93;;;2.43;;
56770;SDS011;42641;59.794;17.616;2023-04-24T13:17:29;2.87;;;2.33;;
56770;SDS011;42641;59.794;17.616;2023-04-24T13:19:55;2.63;;;2.43;;
56770;SDS011;42641;59.794;17.616;2023-04-24T13:22:22;3.97;;;2.27;;
56770;SDS011;42641;59.794;17.616;2023-04-24T13:24:48;2.83;;;2.53;;
56770;SDS011;42641;59.794;17.616;2023-04-24T13:27:15;3.00;;;2.70;;
56770;SDS011;42641;59.794;17.616;2023-04-24T13:29:42;3.07;;;2.53;;
56770;SDS011;42641;59.794;17.616;2023-04-24T13:32:09;3.57;;;2.60;;
56770;SDS011;42641;59.794;17.616;2023-04-24T13:34:36;8.17;;;2.87;;
56770;SDS011;42641;59.794;17.616;2023-04-24T13:37:02;3.90;;;2.77;;
56770;SDS011;42641;59.794;17.616;2023-04-24T13:39:29;4.20;;;2.40;;
56770;SDS011;42641;59.794;17.616;2023-04-24T13:41:56;2.53;;;2.33;;
56770;SDS011;42641;59.794;17.616;2023-04-24T13:44:24;2.53;;;2.27;;
56770;SDS011;42641;59.794;17.616;2023-04-24T13:46:51;4.37;;;2.53;;
56770;SDS011;42641;59.794;17.616;2023-04-24T13:49:20;2.87;;;2.57;;
56770;SDS011;42641;59.794;17.616;2023-04-24T13:51:47;3.90;;;2.87;;
56770;SDS011;42641;59.794;17.616;2023-04-24T13:54:13;3.43;;;2.80;;
56770;SDS011;42641;59.794;17.616;2023-04-24T13:56:40;2.80;;;2.60;;
56770;SDS011;42641;59.794;17.616;2023-04-24T13:59:06;3.10;;;2.80;;
56770;SDS011;42641;59.794;17.616;2023-04-24T14:01:34;3.97;;;2.60;;
56770;SDS011;42641;59.794;17.616;2023-04-24T14:04:00;3.70;;;2.67;;
56770;SDS011;42641;59.794;17.616;2023-04-24T14:06:27;2.87;;;2.67;;
56770;SDS011;42641;59.794;17.616;2023-04-24T14:08:53;3.20;;;2.90;;
56770;SDS011;42641;59.794;17.616;2023-04-24T14:11:20;5.90;;;2.93;;
56770;SDS011;42641;59.794;17.616;2023-04-24T14:13:47;3.87;;;2.70;;
56770;SDS011;42641;59.794;17.616;2023-04-24T14:16:14;2.80;;;2.60;;
56770;SDS011;42641;59.794;17.616;2023-04-24T14:18:40;3.30;;;2.80;;
56770;SDS011;42641;59.794;17.616;2023-04-24T14:21:06;3.60;;;2.53;;
56770;SDS011;42641;59.794;17.616;2023-04-24T14:23:33;4.87;;;2.67;;
56770;SDS011;42641;59.794;17.616;2023-04-24T14:26:00;2.87;;;2.60;;
56770;SDS011;42641;59.794;17.616;2023-04-24T14:28:26;3.67;;;2.53;;
56770;SDS011;42641;59.794;17.616;2023-04-24T14:30:53;6.13;;;3.07;;
56770;SDS011;42641;59.794;17.616;2023-04-24T14:33:19;3.90;;;2.87;;
56770;SDS011;42641;59.794;17.616;2023-04-24T14:35:46;3.90;;;3.13;;
56770;SDS011;42641;59.794;17.616;2023-04-24T14:38:13;3.33;;;3.00;;
56770;SDS011;42641;59.794;17.616;2023-04-24T14:40:40;5.07;;;3.00;;
56770;SDS011;42641;59.794;17.616;2023-04-24T14:43:07;5.03;;;3.13;;
56770;SDS011;42641;59.794;17.616;2023-04-24T14:45:33;3.43;;;3.13;;
56770;SDS011;42641;59.794;17.616;2023-04-24T14:48:00;3.77;;;3.00;;
56770;SDS011;42641;59.794;17.616;2023-04-24T14:50:26;2.90;;;2.70;;
56770;SDS011;42641;59.794;17.616;2023-04-24T14:52:54;3.87;;;2.70;;
56770;SDS011;42641;59.794;17.616;2023-04-24T14:55:24;3.60;;;2.97;;
56770;SDS011;42641;59.794;17.616;2023-04-24T14:57:51;3.90;;;3.27;;